createdAt,value
2023-04-15T00:01:20.064Z,81.75
2023-04-15T00:06:22.970Z,79.42
2023-04-15T00:11:24.505Z,80.63
2023-04-15T00:16:26.089Z,79.65
2023-04-15T00:21:28.996Z,85.24
2023-04-15T00:26:30.549Z,80.92
2023-04-15T00:31:32.280Z,84.07
2023-04-15T00:36:35.133Z,81.98
2023-04-15T00:41:36.685Z,82.70
2023-04-15T00:46:39.228Z,83.37
2023-04-15T00:51:42.079Z,83.82
2023-04-15T00:56:43.689Z,83.61
2023-04-15T01:01:45.385Z,84.36
2023-04-15T01:06:48.310Z,86.80
2023-04-15T01:11:50.332Z,90.34
2023-04-15T01:16:52.795Z,88.71
2023-04-15T01:21:56.293Z,88.63
2023-04-15T01:26:59.351Z,88.30
2023-04-15T01:32:01.487Z,88.87
2023-04-15T01:37:03.001Z,89.20
2023-04-15T01:42:05.842Z,86.71
2023-04-15T01:47:07.353Z,88.34
2023-04-15T01:52:08.888Z,86.76
2023-04-15T01:57:11.846Z,88.84
2023-04-15T02:02:13.347Z,89.44
2023-04-15T02:07:14.857Z,90.72
2023-04-15T02:12:17.699Z,90.13
2023-04-15T02:17:19.323Z,89.37
2023-04-15T02:22:20.894Z,86.51
2023-04-15T02:27:23.823Z,87.23
2023-04-15T02:32:25.382Z,89.81
2023-04-15T02:37:26.921Z,87.79
2023-04-15T02:42:29.772Z,87.30
2023-04-15T02:47:31.285Z,89.35
2023-04-15T02:52:32.843Z,86.97
2023-04-15T02:57:35.989Z,87.50
2023-04-15T03:02:39.566Z,89.11
2023-04-15T03:07:41.219Z,89.17
2023-04-15T03:12:44.128Z,91.03
2023-04-15T03:17:45.654Z,89.09
2023-04-15T03:22:47.193Z,89.30
2023-04-15T03:27:50.046Z,88.64
2023-04-15T03:32:51.621Z,88.68
2023-04-15T03:37:53.130Z,86.75
2023-04-15T03:42:56.047Z,87.72
2023-04-15T03:48:03.712Z,86.93
2023-04-15T03:53:17.441Z,86.96
2023-04-15T03:58:20.292Z,87.15
2023-04-15T04:03:22.085Z,86.98
2023-04-15T04:08:23.766Z,86.28
2023-04-15T04:13:26.718Z,85.26
2023-04-15T04:18:28.257Z,85.13
2023-04-15T04:23:29.845Z,86.00
2023-04-15T04:28:32.721Z,85.84
2023-04-15T04:33:34.265Z,84.67
2023-04-15T04:38:35.840Z,85.43
2023-04-15T04:43:38.720Z,86.70
2023-04-15T04:48:40.274Z,87.60
2023-04-15T04:53:42.005Z,87.88
2023-04-15T04:58:44.896Z,86.58
2023-04-15T05:03:46.618Z,87.90
2023-04-15T05:08:48.478Z,89.13
2023-04-15T05:13:51.331Z,88.55
2023-04-15T05:18:52.987Z,89.23
2023-04-15T05:23:54.560Z,89.05
2023-04-15T05:28:57.442Z,89.81
2023-04-15T05:33:59.107Z,90.27
2023-04-15T05:39:00.864Z,87.71
2023-04-15T05:44:04.171Z,89.08
2023-04-15T05:49:05.727Z,86.27
2023-04-15T05:54:07.281Z,85.65
2023-04-15T05:59:10.180Z,87.34
2023-04-15T06:04:11.854Z,85.92
2023-04-15T06:09:13.475Z,83.10
2023-04-15T06:14:16.353Z,75.90
2023-04-15T06:19:17.895Z,75.38
2023-04-15T06:24:19.466Z,73.99
2023-04-15T06:29:22.569Z,74.33
2023-04-15T06:34:24.103Z,73.52
2023-04-15T06:39:25.642Z,72.71
2023-04-15T06:44:29.237Z,72.78
2023-04-15T06:49:30.764Z,74.58
2023-04-15T06:54:32.310Z,73.88
2023-04-15T06:59:35.350Z,74.09
2023-04-15T07:04:36.987Z,73.75
2023-04-15T07:09:38.579Z,72.40
2023-04-15T07:14:41.432Z,76.17
2023-04-15T07:19:42.944Z,77.18
2023-04-15T07:24:44.510Z,77.04
2023-04-15T07:29:47.359Z,77.73
2023-04-15T07:34:48.910Z,77.15
2023-04-15T07:39:50.462Z,74.49
2023-04-15T07:44:53.375Z,88.16
2023-04-15T07:49:54.958Z,79.72
2023-04-15T07:54:56.510Z,70.90
2023-04-15T08:00:00.414Z,72.46
2023-04-15T08:05:02.163Z,56.65
2023-04-15T08:10:04.387Z,57.40
2023-04-15T08:15:08.584Z,64.45
2023-04-15T08:20:11.028Z,72.52
2023-04-15T08:25:12.546Z,62.55
2023-04-15T08:30:15.492Z,67.92
2023-04-15T08:35:17.053Z,67.37
2023-04-15T08:40:18.749Z,59.18
2023-04-15T08:45:22.925Z,64.57
2023-04-15T08:50:26.136Z,66.30
2023-04-15T08:55:30.598Z,58.13
2023-04-15T09:00:33.654Z,68.36
2023-04-15T09:05:36.449Z,58.57
2023-04-15T09:10:38.150Z,43.92
2023-04-15T09:15:41.220Z,48.92
2023-04-15T09:26:42.642Z,56.03
2023-04-15T09:37:07.833Z,51.86
2023-04-15T09:42:09.684Z,51.54
2023-04-15T09:47:27.530Z,56.29
2023-04-15T09:52:29.743Z,55.20
2023-04-15T09:57:35.807Z,61.81
2023-04-15T10:02:40.410Z,64.24
2023-04-15T10:07:42.591Z,56.07
2023-04-15T10:12:45.007Z,46.62
2023-04-15T10:17:50.901Z,47.43
2023-04-15T10:22:53.217Z,51.48
2023-04-15T10:27:56.540Z,51.85
2023-04-15T10:33:00.208Z,47.30
2023-04-15T10:38:02.061Z,48.25
2023-04-15T10:43:04.057Z,55.41
2023-04-15T10:48:08.270Z,50.25
2023-04-15T10:53:10.966Z,64.31
2023-04-15T10:58:12.623Z,59.16
2023-04-15T11:03:15.741Z,62.13
2023-04-15T11:08:17.663Z,55.46
2023-04-15T11:13:24.279Z,65.63
2023-04-15T11:18:31.805Z,61.37
2023-04-15T11:23:39.394Z,66.63
2023-04-15T11:28:42.657Z,60.24
2023-04-15T11:33:55.796Z,56.47
2023-04-15T11:38:58.789Z,61.80
2023-04-15T11:44:00.468Z,69.25
2023-04-15T11:49:03.543Z,70.80
2023-04-15T11:54:05.483Z,72.65
2023-04-15T11:59:07.299Z,71.10
2023-04-15T12:04:13.323Z,66.34
2023-04-15T12:09:16.481Z,67.11
2023-04-15T12:14:24.477Z,50.00
2023-04-15T12:19:29.513Z,53.56
2023-04-15T12:24:32.104Z,52.13
2023-04-15T12:29:35.361Z,54.20
2023-04-15T12:34:39.749Z,57.32
2023-04-15T12:39:42.380Z,65.03
2023-04-15T12:44:44.259Z,71.82
2023-04-15T12:49:47.212Z,69.84
2023-04-15T12:54:48.782Z,63.76
2023-04-15T12:59:50.341Z,64.43
2023-04-15T13:04:53.235Z,64.73
2023-04-15T13:09:54.886Z,58.27
2023-04-15T13:14:56.452Z,58.46
2023-04-15T13:19:59.421Z,56.21
2023-04-15T13:25:01.048Z,55.45
2023-04-15T13:30:02.764Z,63.55
2023-04-15T13:35:06.132Z,66.96
2023-04-15T13:40:08.964Z,71.96
2023-04-15T13:45:11.157Z,79.02
2023-04-15T13:50:14.040Z,86.61
2023-04-15T13:55:20.260Z,100.00
2023-04-15T14:00:22.804Z,100.00
2023-04-15T14:05:25.759Z,100.00
2023-04-15T14:10:27.397Z,100.00
2023-04-15T14:15:29.080Z,100.00
2023-04-15T14:20:32.124Z,100.00
2023-04-15T14:25:34.312Z,100.00
2023-04-15T14:30:36.352Z,100.00
2023-04-15T14:35:39.394Z,100.00
2023-04-15T14:40:41.817Z,100.00
2023-04-15T14:45:45.243Z,100.00
2023-04-15T14:50:48.590Z,98.06
2023-04-15T14:55:50.123Z,96.71
2023-04-15T15:00:51.695Z,86.11
2023-04-15T15:05:54.966Z,85.39
2023-04-15T15:10:56.772Z,84.33
2023-04-15T15:15:58.404Z,80.32
2023-04-15T15:21:01.529Z,73.22
2023-04-15T15:26:03.132Z,71.61
2023-04-15T15:31:04.744Z,69.38
2023-04-15T15:36:07.794Z,70.39
2023-04-15T15:41:09.398Z,68.87
2023-04-15T15:46:11.075Z,70.27
2023-04-15T15:51:14.050Z,72.65
2023-04-15T15:56:15.636Z,68.77
2023-04-15T16:01:17.357Z,69.18
2023-04-15T16:06:20.334Z,69.57
2023-04-15T16:11:21.960Z,68.28
2023-04-15T16:16:23.587Z,72.00
2023-04-15T16:21:26.608Z,71.15
2023-04-15T16:26:28.182Z,73.78
2023-04-15T16:31:30.230Z,73.87
2023-04-15T16:36:35.188Z,75.60
2023-04-15T16:41:36.755Z,76.15
2023-04-15T16:46:40.374Z,80.84
2023-04-15T16:51:43.805Z,82.38
2023-04-15T16:56:45.463Z,84.63
2023-04-15T17:01:47.191Z,92.08
2023-04-15T17:06:50.204Z,93.50
2023-04-15T17:11:51.768Z,97.55
2023-04-15T17:16:53.360Z,100.00
2023-04-15T17:21:56.364Z,100.00
2023-04-15T17:26:57.983Z,100.00
2023-04-15T17:32:00.208Z,100.00
2023-04-15T17:37:03.129Z,100.00
2023-04-15T17:42:04.759Z,100.00
2023-04-15T17:47:06.807Z,100.00
2023-04-15T17:52:09.857Z,100.00
2023-04-15T17:57:11.415Z,100.00
2023-04-15T18:02:13.236Z,100.00
2023-04-15T18:07:16.250Z,100.00
2023-04-15T18:12:17.795Z,100.00
2023-04-15T18:17:19.504Z,100.00
2023-04-15T18:22:22.492Z,100.00
2023-04-15T18:27:24.205Z,100.00
2023-04-15T18:32:26.078Z,100.00
2023-04-15T18:37:28.989Z,100.00
2023-04-15T18:42:42.864Z,100.00
2023-04-15T18:47:44.554Z,100.00
2023-04-15T18:52:47.560Z,100.00
2023-04-15T18:57:49.366Z,100.00
2023-04-15T19:02:51.580Z,100.00
2023-04-15T19:07:55.892Z,100.00
2023-04-15T19:13:01.361Z,100.00
2023-04-15T19:18:03.027Z,100.00
2023-04-15T19:23:06.272Z,100.00
2023-04-15T19:28:07.863Z,100.00
2023-04-15T19:33:09.587Z,100.00
2023-04-15T19:38:12.495Z,100.00
2023-04-15T19:43:14.011Z,100.00
2023-04-15T19:48:15.708Z,100.00
2023-04-15T19:53:18.732Z,100.00
2023-04-15T19:58:20.369Z,100.00
2023-04-15T20:03:22.166Z,100.00
2023-04-15T20:08:25.227Z,100.00
2023-04-15T20:13:26.793Z,100.00
2023-04-15T20:18:28.360Z,100.00
2023-04-15T20:23:31.282Z,100.00
2023-04-15T20:28:32.986Z,100.00
2023-04-15T20:33:34.535Z,100.00
2023-04-15T20:38:37.571Z,100.00
2023-04-15T20:43:39.135Z,100.00
2023-04-15T20:48:40.753Z,100.00
2023-04-15T20:53:43.694Z,100.00
2023-04-15T20:58:45.292Z,100.00
2023-04-15T21:03:47.080Z,100.00
2023-04-15T21:08:50.196Z,100.00
2023-04-15T21:13:51.818Z,100.00
2023-04-15T21:18:53.992Z,100.00
2023-04-15T21:23:57.449Z,100.00
2023-04-15T21:28:59.003Z,100.00
2023-04-15T21:34:00.587Z,100.00
2023-04-15T21:39:04.270Z,100.00
2023-04-15T21:44:06.013Z,100.00
2023-04-15T21:49:07.793Z,100.00
2023-04-15T21:54:10.924Z,100.00
2023-04-15T21:59:18.311Z,100.00
2023-04-15T22:04:20.069Z,100.00
2023-04-15T22:09:23.309Z,100.00
2023-04-15T22:14:25.040Z,100.00
2023-04-15T22:19:26.617Z,100.00
2023-04-15T22:24:38.869Z,100.00
2023-04-15T22:29:42.015Z,100.00
2023-04-15T22:34:43.575Z,100.00
2023-04-15T22:39:46.524Z,100.00
2023-04-15T22:44:49.233Z,100.00
2023-04-15T22:49:51.911Z,100.00
2023-04-15T22:54:54.794Z,100.00
2023-04-15T22:59:56.500Z,100.00
2023-04-15T23:04:59.151Z,100.00
2023-04-15T23:10:03.097Z,100.00
2023-04-15T23:15:05.506Z,100.00
2023-04-15T23:20:07.621Z,100.00
2023-04-15T23:25:10.691Z,100.00
2023-04-15T23:30:12.561Z,100.00
2023-04-15T23:35:14.156Z,100.00
2023-04-15T23:40:17.367Z,100.00
2023-04-15T23:45:18.988Z,100.00
2023-04-15T23:50:20.526Z,100.00
2023-04-15T23:55:29.214Z,100.00
